createdAt,value
2017-11-08T00:02:02.136Z,5.40
2017-11-08T00:04:29.596Z,5.40
2017-11-08T00:06:57.043Z,5.40
2017-11-08T00:09:24.502Z,5.40
2017-11-08T00:11:51.950Z,5.40
2017-11-08T00:14:20.157Z,5.40
2017-11-08T00:16:47.619Z,5.40
2017-11-08T00:19:15.072Z,5.30
2017-11-08T00:21:45.066Z,5.20
2017-11-08T00:24:12.529Z,5.00
2017-11-08T00:26:39.973Z,4.80
2017-11-08T00:29:08.177Z,4.50
2017-11-08T00:31:35.637Z,4.50
2017-11-08T00:34:03.090Z,4.30
2017-11-08T00:36:30.566Z,4.20
2017-11-08T00:38:58.012Z,4.00
2017-11-08T00:41:25.465Z,3.90
2017-11-08T00:43:52.919Z,3.70
2017-11-08T00:46:20.370Z,3.60
2017-11-08T00:48:47.813Z,3.50
2017-11-08T00:51:16.046Z,3.30
2017-11-08T00:53:43.498Z,3.20
2017-11-08T00:56:10.952Z,3.20
2017-11-08T00:58:38.397Z,3.10
2017-11-08T01:01:05.859Z,3.00
2017-11-08T01:03:33.314Z,2.90
2017-11-08T01:06:00.781Z,2.80
2017-11-08T01:08:28.235Z,2.80
2017-11-08T01:10:55.685Z,2.70
2017-11-08T01:13:23.142Z,2.70
2017-11-08T01:15:50.602Z,2.70
2017-11-08T01:18:18.056Z,2.60
2017-11-08T01:20:45.511Z,2.60
2017-11-08T01:23:12.976Z,2.50
2017-11-08T01:25:40.432Z,2.50
2017-11-08T01:28:07.879Z,2.40
2017-11-08T01:30:35.363Z,2.40
2017-11-08T01:33:02.807Z,2.40
2017-11-08T01:35:30.263Z,2.40
2017-11-08T01:37:57.730Z,2.50
2017-11-08T01:40:25.181Z,2.60
2017-11-08T01:42:52.632Z,2.70
2017-11-08T01:45:20.081Z,2.80
2017-11-08T01:47:47.548Z,2.80
2017-11-08T01:50:15.002Z,2.90
2017-11-08T01:52:42.469Z,3.10
2017-11-08T01:55:09.927Z,3.20
2017-11-08T01:57:37.402Z,3.30
2017-11-08T02:00:04.852Z,3.30
2017-11-08T02:02:38.738Z,3.40
2017-11-08T02:05:06.190Z,3.50
2017-11-08T02:07:33.639Z,3.50
2017-11-08T02:10:01.865Z,3.70
2017-11-08T02:12:29.309Z,3.70
2017-11-08T02:14:56.772Z,3.70
2017-11-08T02:17:24.217Z,3.70
2017-11-08T02:19:51.678Z,3.80
2017-11-08T02:22:19.133Z,3.80
2017-11-08T02:24:46.608Z,3.80
2017-11-08T02:27:14.079Z,3.80
2017-11-08T02:29:41.529Z,3.80
2017-11-08T02:32:08.993Z,3.80
2017-11-08T02:34:36.498Z,3.80
2017-11-08T02:37:04.717Z,3.80
2017-11-08T02:39:32.159Z,3.80
2017-11-08T02:41:59.613Z,3.90
2017-11-08T02:44:27.063Z,3.90
2017-11-08T02:46:58.296Z,3.90
2017-11-08T02:49:26.509Z,3.90
2017-11-08T02:51:53.977Z,3.90
2017-11-08T02:54:23.331Z,3.90
2017-11-08T02:56:51.553Z,3.90
2017-11-08T02:59:19.008Z,3.90
2017-11-08T03:01:46.450Z,3.80
2017-11-08T03:04:13.906Z,3.80
2017-11-08T03:06:41.351Z,3.80
2017-11-08T03:09:08.795Z,3.80
2017-11-08T03:11:37.014Z,3.80
2017-11-08T03:14:04.470Z,3.80
2017-11-08T03:16:31.914Z,3.90
2017-11-08T03:18:59.434Z,3.90
2017-11-08T03:21:27.655Z,4.00
2017-11-08T03:23:55.099Z,4.00
2017-11-08T03:26:22.557Z,4.00
2017-11-08T03:28:50.004Z,3.90
2017-11-08T03:31:17.465Z,3.80
2017-11-08T03:33:44.902Z,3.70
2017-11-08T03:36:13.166Z,3.60
2017-11-08T03:38:40.614Z,3.60
2017-11-08T03:41:08.113Z,3.50
2017-11-08T03:43:35.589Z,3.50
2017-11-08T03:46:03.046Z,3.60
2017-11-08T03:48:30.498Z,3.60
2017-11-08T03:50:57.945Z,3.70
2017-11-08T03:53:25.407Z,3.70
2017-11-08T03:55:52.873Z,3.70
2017-11-08T03:58:20.319Z,3.70
2017-11-08T04:00:47.767Z,3.60
2017-11-08T04:03:16.010Z,3.30
2017-11-08T04:05:43.455Z,3.30
2017-11-08T04:08:10.902Z,3.10
2017-11-08T04:10:38.362Z,3.00
2017-11-08T04:13:05.819Z,2.90
2017-11-08T04:15:33.282Z,2.70
2017-11-08T04:18:00.735Z,2.60
2017-11-08T04:20:28.196Z,2.50
2017-11-08T04:22:55.638Z,2.50
2017-11-08T04:25:23.096Z,2.40
2017-11-08T04:27:50.547Z,2.40
2017-11-08T04:30:18.047Z,2.40
2017-11-08T04:32:45.505Z,2.30
2017-11-08T04:35:12.954Z,2.30
2017-11-08T04:37:40.417Z,2.30
2017-11-08T04:40:07.862Z,2.20
2017-11-08T04:42:35.330Z,2.20
2017-11-08T04:45:02.779Z,2.10
2017-11-08T04:47:30.239Z,2.10
2017-11-08T04:49:57.713Z,1.90
2017-11-08T04:52:25.179Z,1.80
2017-11-08T04:54:52.627Z,1.70
2017-11-08T04:57:20.127Z,1.70
2017-11-08T04:59:48.346Z,1.60
2017-11-08T05:02:15.814Z,1.60
2017-11-08T05:04:43.266Z,1.60
2017-11-08T05:07:10.722Z,1.60
2017-11-08T05:09:38.184Z,1.60
2017-11-08T05:12:05.633Z,1.60
2017-11-08T05:14:33.097Z,1.60
2017-11-08T05:17:00.543Z,1.50
2017-11-08T05:19:27.994Z,1.40
2017-11-08T05:21:55.443Z,1.30
2017-11-08T05:24:22.914Z,1.30
2017-11-08T05:26:50.371Z,1.20
2017-11-08T05:29:17.824Z,1.20
2017-11-08T05:31:45.302Z,1.20
2017-11-08T05:34:12.754Z,1.20
2017-11-08T05:36:40.202Z,1.20
2017-11-08T05:39:07.650Z,1.20
2017-11-08T05:41:35.144Z,1.10
2017-11-08T05:44:02.705Z,1.10
2017-11-08T05:46:30.163Z,1.10
2017-11-08T05:48:57.605Z,1.10
2017-11-08T05:51:25.106Z,1.10
2017-11-08T05:53:53.331Z,1.10
2017-11-08T05:56:20.781Z,1.10
2017-11-08T05:58:48.278Z,1.10
2017-11-08T06:01:15.731Z,1.20
2017-11-08T06:03:43.186Z,1.20
2017-11-08T06:06:10.633Z,1.20
2017-11-08T06:08:38.091Z,1.20
2017-11-08T06:11:05.530Z,1.20
2017-11-08T06:13:33.009Z,1.30
2017-11-08T06:16:00.479Z,1.30
2017-11-08T06:18:27.986Z,1.30
2017-11-08T06:20:55.437Z,1.30
2017-11-08T06:23:23.655Z,1.30
2017-11-08T06:25:51.114Z,1.20
2017-11-08T06:28:18.562Z,1.20
2017-11-08T06:30:46.044Z,1.20
2017-11-08T06:33:13.500Z,1.30
2017-11-08T06:35:40.950Z,1.30
2017-11-08T06:38:08.406Z,1.30
2017-11-08T06:40:35.865Z,1.20
2017-11-08T06:43:03.317Z,1.30
2017-11-08T06:45:30.766Z,1.30
2017-11-08T06:47:58.221Z,1.30
2017-11-08T06:50:25.671Z,1.40
2017-11-08T06:52:53.126Z,1.40
2017-11-08T06:55:20.582Z,1.50
2017-11-08T06:57:48.026Z,1.50
2017-11-08T07:00:16.246Z,1.60
2017-11-08T07:02:43.687Z,1.60
2017-11-08T07:05:11.153Z,1.60
2017-11-08T07:07:38.601Z,1.60
2017-11-08T07:10:06.062Z,1.70
2017-11-08T07:12:33.504Z,1.70
2017-11-08T07:15:00.964Z,1.70
2017-11-08T07:17:31.210Z,1.80
2017-11-08T07:19:58.658Z,1.80
2017-11-08T07:22:26.117Z,1.90
2017-11-08T07:24:53.577Z,2.00
2017-11-08T07:27:21.060Z,2.10
2017-11-08T07:29:48.518Z,2.20
2017-11-08T07:32:15.984Z,2.20
2017-11-08T07:34:43.443Z,2.30
2017-11-08T07:37:10.882Z,2.40
2017-11-08T07:39:38.336Z,2.40
2017-11-08T07:42:05.794Z,2.50
2017-11-08T07:44:33.243Z,2.60
2017-11-08T07:47:00.700Z,2.70
2017-11-08T07:49:28.148Z,2.80
2017-11-08T07:51:56.379Z,3.00
2017-11-08T07:54:24.610Z,3.20
2017-11-08T07:56:55.851Z,3.20
2017-11-08T07:59:26.090Z,3.40
2017-11-08T08:01:53.559Z,3.50
2017-11-08T08:04:21.037Z,3.60
2017-11-08T08:06:48.506Z,3.70
2017-11-08T08:09:15.953Z,3.70
2017-11-08T08:11:46.211Z,3.70
2017-11-08T08:14:14.434Z,4.20
2017-11-08T08:16:41.876Z,4.10
2017-11-08T08:19:09.331Z,4.50
2017-11-08T08:21:36.785Z,4.90
2017-11-08T08:24:04.241Z,5.40
2017-11-08T08:26:31.695Z,5.70
2017-11-08T08:29:01.681Z,5.90
2017-11-08T08:31:29.891Z,6.30
2017-11-08T08:33:57.361Z,6.30
2017-11-08T08:36:24.815Z,6.50
2017-11-08T08:38:52.265Z,6.70
2017-11-08T08:41:19.714Z,6.80
2017-11-08T08:43:47.152Z,6.90
2017-11-08T08:46:15.363Z,7.00
2017-11-08T08:48:42.806Z,7.00
2017-11-08T08:51:10.277Z,7.00
2017-11-08T08:53:37.726Z,7.10
2017-11-08T08:56:05.176Z,7.10
2017-11-08T08:58:32.625Z,7.20
2017-11-08T09:01:00.067Z,7.20
2017-11-08T09:03:28.306Z,7.40
2017-11-08T09:05:55.743Z,7.40
2017-11-08T09:08:23.235Z,7.40
2017-11-08T09:10:50.675Z,7.50
2017-11-08T09:13:18.112Z,7.60
2017-11-08T09:15:45.574Z,7.70
2017-11-08T09:18:13.021Z,7.70
2017-11-08T09:20:40.469Z,7.80
2017-11-08T09:23:07.906Z,7.90
2017-11-08T09:25:36.139Z,7.90
2017-11-08T09:28:03.593Z,7.90
2017-11-08T09:30:31.037Z,7.90
2017-11-08T09:32:58.494Z,7.90
2017-11-08T09:35:25.933Z,7.90
2017-11-08T09:37:59.085Z,8.00
2017-11-08T09:40:26.537Z,8.00
2017-11-08T09:42:54.001Z,8.00
2017-11-08T09:45:21.442Z,8.10
2017-11-08T09:47:48.885Z,8.20
2017-11-08T09:50:16.330Z,8.20
2017-11-08T09:52:43.772Z,8.40
2017-11-08T09:55:11.225Z,8.40
2017-11-08T09:57:38.713Z,8.50
2017-11-08T10:00:06.170Z,8.50
2017-11-08T10:02:34.377Z,8.60
2017-11-08T10:05:01.849Z,8.60
2017-11-08T10:07:29.304Z,8.60
2017-11-08T10:09:56.789Z,8.60
2017-11-08T10:12:24.193Z,8.60
2017-11-08T10:14:51.633Z,8.60
2017-11-08T10:17:19.084Z,8.60
2017-11-08T10:19:46.531Z,8.50
2017-11-08T10:22:13.978Z,8.50
2017-11-08T10:24:43.084Z,8.40
2017-11-08T10:27:10.533Z,8.40
2017-11-08T10:29:37.989Z,8.60
2017-11-08T10:32:06.193Z,8.80
2017-11-08T10:34:33.645Z,8.70
2017-11-08T10:37:01.092Z,8.80
2017-11-08T10:39:28.550Z,8.80
2017-11-08T10:41:56.017Z,8.80
2017-11-08T10:44:23.421Z,8.90
2017-11-08T10:46:51.640Z,8.90
2017-11-08T10:49:20.863Z,8.90
2017-11-08T10:51:48.323Z,9.00
2017-11-08T10:54:15.768Z,9.00
2017-11-08T10:56:43.236Z,9.00
2017-11-08T10:59:16.362Z,9.00
2017-11-08T11:01:44.602Z,9.00
2017-11-08T11:04:12.043Z,9.00
2017-11-08T11:06:39.485Z,9.00
2017-11-08T11:09:06.947Z,9.00
2017-11-08T11:11:34.395Z,8.90
2017-11-08T11:14:07.511Z,8.90
2017-11-08T11:16:34.957Z,8.70
2017-11-08T11:19:02.507Z,8.60
2017-11-08T11:21:29.943Z,8.50
2017-11-08T11:23:58.296Z,8.40
2017-11-08T11:26:33.180Z,8.40
2017-11-08T11:29:00.633Z,8.40
2017-11-08T11:31:28.088Z,8.40
2017-11-08T11:33:55.532Z,8.30
2017-11-08T11:36:23.011Z,8.20
2017-11-08T11:38:50.490Z,8.20
2017-11-08T11:41:24.379Z,8.20
2017-11-08T11:43:51.821Z,8.20
2017-11-08T11:46:19.347Z,8.10
2017-11-08T11:48:54.496Z,8.00
2017-11-08T11:51:25.726Z,8.00
2017-11-08T11:53:53.176Z,8.00
2017-11-08T11:56:20.724Z,8.00
2017-11-08T11:58:48.179Z,8.00
2017-11-08T12:01:15.766Z,8.10
2017-11-08T12:03:43.267Z,8.20
2017-11-08T12:06:11.532Z,8.30
2017-11-08T12:08:39.743Z,8.40
2017-11-08T12:11:07.204Z,8.40
2017-11-08T12:13:34.666Z,8.40
2017-11-08T12:16:02.120Z,8.50
2017-11-08T12:18:29.661Z,8.40
2017-11-08T12:20:57.112Z,8.30
2017-11-08T12:23:25.315Z,8.30
2017-11-08T12:25:52.766Z,8.30
2017-11-08T12:28:20.256Z,8.30
2017-11-08T12:30:47.671Z,8.30
2017-11-08T12:33:15.146Z,8.30
2017-11-08T12:35:49.431Z,8.30
2017-11-08T12:38:17.640Z,8.30
2017-11-08T12:40:45.096Z,8.30
2017-11-08T12:43:13.462Z,8.20
2017-11-08T12:45:40.951Z,8.10
2017-11-08T12:48:08.391Z,8.10
2017-11-08T12:50:35.831Z,8.00
2017-11-08T12:53:03.279Z,7.90
2017-11-08T12:55:31.494Z,7.80
2017-11-08T12:57:58.963Z,7.70
2017-11-08T13:00:26.406Z,7.80
2017-11-08T13:02:53.853Z,7.70
2017-11-08T13:08:16.964Z,7.60
2017-11-08T13:10:50.038Z,7.60
2017-11-08T13:13:17.525Z,7.50
2017-11-08T13:15:44.980Z,7.40
2017-11-08T13:18:12.449Z,7.40
2017-11-08T13:20:39.904Z,7.40
2017-11-08T13:23:07.360Z,7.40
2017-11-08T13:25:34.828Z,7.40
2017-11-08T13:28:05.138Z,7.40
2017-11-08T13:30:32.629Z,7.40
2017-11-08T13:33:00.861Z,7.50
2017-11-08T13:35:28.324Z,7.40
2017-11-08T13:37:55.789Z,7.50
2017-11-08T13:40:23.240Z,7.50
2017-11-08T13:42:50.716Z,7.50
2017-11-08T13:45:22.160Z,7.50
2017-11-08T13:47:49.648Z,7.50
2017-11-08T13:50:17.876Z,7.40
2017-11-08T13:52:45.332Z,7.40
2017-11-08T13:55:12.797Z,7.40
2017-11-08T13:57:40.261Z,7.40
2017-11-08T14:00:07.724Z,7.30
2017-11-08T14:02:35.195Z,7.30
2017-11-08T14:05:02.657Z,7.30
2017-11-08T14:07:30.140Z,7.30
2017-11-08T14:09:58.396Z,7.20
2017-11-08T14:12:25.849Z,7.20
2017-11-08T14:14:53.320Z,7.30
2017-11-08T14:17:20.784Z,7.20
2017-11-08T14:19:49.029Z,7.20
2017-11-08T14:22:16.493Z,7.20
2017-11-08T14:24:43.948Z,7.20
2017-11-08T14:27:11.417Z,7.20
2017-11-08T14:29:41.945Z,7.20
2017-11-08T14:32:12.208Z,7.10
2017-11-08T14:34:40.436Z,7.20
2017-11-08T14:37:07.894Z,7.10
2017-11-08T14:39:35.361Z,7.10
2017-11-08T14:42:08.517Z,7.10
2017-11-08T14:44:35.989Z,7.10
2017-11-08T14:47:03.452Z,7.10
2017-11-08T14:49:30.925Z,7.20
2017-11-08T14:52:00.312Z,7.10
2017-11-08T14:54:27.777Z,7.10
2017-11-08T14:56:55.238Z,7.00
2017-11-08T14:59:22.705Z,7.10
2017-11-08T15:01:52.985Z,7.00
2017-11-08T15:04:20.449Z,7.00
2017-11-08T15:06:47.930Z,7.00
2017-11-08T15:09:16.340Z,7.00
2017-11-08T15:11:44.578Z,7.00
2017-11-08T15:17:09.962Z,7.00
2017-11-08T15:19:43.836Z,7.00
2017-11-08T15:22:11.297Z,7.00
2017-11-08T15:24:38.796Z,7.00
2017-11-08T15:27:06.268Z,7.00
2017-11-08T15:29:36.233Z,7.00
2017-11-08T15:32:03.719Z,6.90
2017-11-08T15:34:33.888Z,6.90
2017-11-08T15:37:01.349Z,6.90
2017-11-08T15:39:28.812Z,6.80
2017-11-08T15:41:56.280Z,6.80
2017-11-08T15:44:23.750Z,6.80
2017-11-08T15:46:55.013Z,6.80
2017-11-08T15:49:23.276Z,6.80
2017-11-08T15:51:50.750Z,6.70
2017-11-08T15:54:18.984Z,6.70
2017-11-08T15:56:46.472Z,6.70
2017-11-08T15:59:14.713Z,6.80
2017-11-08T16:01:42.212Z,6.80
2017-11-08T16:04:11.401Z,6.70
2017-11-08T16:06:39.651Z,6.70
2017-11-08T16:09:09.976Z,6.70
2017-11-08T16:11:37.449Z,6.80
2017-11-08T16:14:04.922Z,6.70
2017-11-08T16:16:33.162Z,6.70
2017-11-08T16:19:02.425Z,6.70
2017-11-08T16:21:30.665Z,6.70
2017-11-08T16:23:59.640Z,6.70
2017-11-08T16:26:27.113Z,6.70
2017-11-08T16:28:55.356Z,6.80
2017-11-08T16:31:22.836Z,6.80
2017-11-08T16:33:50.316Z,6.80
2017-11-08T16:36:18.548Z,6.70
2017-11-08T16:38:46.009Z,6.80
2017-11-08T16:41:13.470Z,6.80
2017-11-08T16:43:40.933Z,6.70
2017-11-08T16:46:08.454Z,6.70
2017-11-08T16:48:36.831Z,6.70
2017-11-08T16:51:04.300Z,6.70
2017-11-08T16:53:31.760Z,6.70
2017-11-08T16:55:59.253Z,6.70
2017-11-08T16:58:26.710Z,6.60
2017-11-08T17:00:54.181Z,6.60
2017-11-08T17:03:21.640Z,6.70
2017-11-08T17:05:49.117Z,6.70
2017-11-08T17:08:17.421Z,6.70
2017-11-08T17:10:44.894Z,6.70
2017-11-08T17:13:12.370Z,6.60
2017-11-08T17:15:39.843Z,6.70
2017-11-08T17:18:07.339Z,6.70
2017-11-08T17:20:34.820Z,6.70
2017-11-08T17:23:02.285Z,6.60
2017-11-08T17:25:29.748Z,6.70
2017-11-08T17:27:57.217Z,6.60
2017-11-08T17:30:24.689Z,6.60
2017-11-08T17:32:52.156Z,6.60
2017-11-08T17:35:20.405Z,6.60
2017-11-08T17:37:47.874Z,6.60
2017-11-08T17:40:16.111Z,6.50
2017-11-08T17:42:43.574Z,6.60
2017-11-08T17:45:11.048Z,6.60
2017-11-08T17:47:38.623Z,6.60
2017-11-08T17:50:06.094Z,6.60
2017-11-08T17:52:33.561Z,6.60
2017-11-08T17:55:01.809Z,6.50
2017-11-08T17:57:29.270Z,6.50
2017-11-08T17:59:56.897Z,6.50
2017-11-08T18:02:24.361Z,6.50
2017-11-08T18:04:51.834Z,6.50
2017-11-08T18:07:19.297Z,6.50
2017-11-08T18:09:46.793Z,6.50
2017-11-08T18:12:14.582Z,6.50
2017-11-08T18:14:42.049Z,6.50
2017-11-08T18:17:10.355Z,6.50
2017-11-08T18:19:37.838Z,6.50
2017-11-08T18:22:06.081Z,6.50
2017-11-08T18:24:33.790Z,6.50
2017-11-08T18:27:02.025Z,6.50
2017-11-08T18:29:29.512Z,6.50
2017-11-08T18:31:57.773Z,6.50
2017-11-08T18:34:25.228Z,6.40
2017-11-08T18:36:52.701Z,6.40
2017-11-08T18:39:20.929Z,6.40
2017-11-08T18:41:48.405Z,6.40
2017-11-08T18:44:15.865Z,6.50
2017-11-08T18:46:43.333Z,6.40
2017-11-08T18:49:10.796Z,6.40
2017-11-08T18:51:38.264Z,6.40
2017-11-08T18:54:06.496Z,6.30
2017-11-08T18:56:33.965Z,6.30
2017-11-08T18:59:01.424Z,6.30
2017-11-08T19:01:28.898Z,6.30
2017-11-08T19:03:56.361Z,6.30
2017-11-08T19:06:24.261Z,6.40
2017-11-08T19:08:51.741Z,6.40
2017-11-08T19:11:19.238Z,6.40
2017-11-08T19:13:46.704Z,6.40
2017-11-08T19:16:14.159Z,6.40
2017-11-08T19:18:41.644Z,6.40
2017-11-08T19:21:09.873Z,6.40
2017-11-08T19:23:37.404Z,6.40
2017-11-08T19:26:04.877Z,6.40
2017-11-08T19:28:32.361Z,6.40
2017-11-08T19:30:59.816Z,6.40
2017-11-08T19:33:27.285Z,6.40
2017-11-08T19:35:54.749Z,6.40
2017-11-08T19:38:23.045Z,6.40
2017-11-08T19:40:50.571Z,6.30
2017-11-08T19:43:18.050Z,6.30
2017-11-08T19:45:46.276Z,6.30
2017-11-08T19:48:13.757Z,6.30
2017-11-08T19:50:41.998Z,6.30
2017-11-08T19:53:09.464Z,6.30
2017-11-08T19:55:36.920Z,6.30
2017-11-08T19:58:04.406Z,6.30
2017-11-08T20:00:31.872Z,6.30
2017-11-08T20:02:59.332Z,6.30
2017-11-08T20:05:26.802Z,6.30
2017-11-08T20:07:55.033Z,6.30
2017-11-08T20:10:22.516Z,6.30
2017-11-08T20:12:49.976Z,6.30
2017-11-08T20:15:17.583Z,6.30
2017-11-08T20:17:45.042Z,6.30
2017-11-08T20:20:12.512Z,6.30
2017-11-08T20:22:39.982Z,6.30
2017-11-08T20:25:07.681Z,6.20
2017-11-08T20:27:35.917Z,6.20
2017-11-08T20:30:03.397Z,6.20
2017-11-08T20:32:30.872Z,6.20
2017-11-08T20:34:59.102Z,6.20
2017-11-08T20:37:26.609Z,6.20
2017-11-08T20:39:54.113Z,6.20
2017-11-08T20:42:21.580Z,6.20
2017-11-08T20:44:49.064Z,6.20
2017-11-08T20:47:16.580Z,6.10
2017-11-08T20:49:44.046Z,6.10
2017-11-08T20:52:11.519Z,6.10
2017-11-08T20:54:38.984Z,6.10
2017-11-08T20:57:06.466Z,6.10
2017-11-08T20:59:33.925Z,6.10
2017-11-08T21:02:02.181Z,6.10
2017-11-08T21:04:29.655Z,6.10
2017-11-08T21:06:57.117Z,6.10
2017-11-08T21:09:25.345Z,6.10
2017-11-08T21:11:52.820Z,6.10
2017-11-08T21:14:20.285Z,6.10
2017-11-08T21:16:47.752Z,6.10
2017-11-08T21:19:15.238Z,6.00
2017-11-08T21:21:43.468Z,6.00
2017-11-08T21:24:10.936Z,6.00
2017-11-08T21:26:38.398Z,5.90
2017-11-08T21:29:05.879Z,5.90
2017-11-08T21:31:34.139Z,5.90
2017-11-08T21:34:01.609Z,5.80
2017-11-08T21:36:29.836Z,5.80
2017-11-08T21:38:57.336Z,5.80
2017-11-08T21:41:25.565Z,5.70
2017-11-08T21:43:53.032Z,5.70
2017-11-08T21:46:20.508Z,5.70
2017-11-08T21:48:47.985Z,5.80
2017-11-08T21:51:16.214Z,5.80
2017-11-08T21:53:43.722Z,5.80
2017-11-08T21:56:11.962Z,5.80
2017-11-08T21:58:39.436Z,5.80
2017-11-08T22:01:06.917Z,5.80
2017-11-08T22:03:35.157Z,5.80
2017-11-08T22:06:02.637Z,5.80
2017-11-08T22:08:30.096Z,5.80
2017-11-08T22:10:58.332Z,5.80
2017-11-08T22:13:25.800Z,5.80
2017-11-08T22:15:53.268Z,5.80
2017-11-08T22:18:20.773Z,5.80
2017-11-08T22:20:48.263Z,5.80
2017-11-08T22:23:15.726Z,5.80
2017-11-08T22:25:43.182Z,5.90
2017-11-08T22:28:10.653Z,5.90
2017-11-08T22:30:38.125Z,5.90
2017-11-08T22:33:05.589Z,5.90
2017-11-08T22:35:33.845Z,5.80
2017-11-08T22:38:01.319Z,5.80
2017-11-08T22:40:28.776Z,5.80
2017-11-08T22:42:56.231Z,5.90
2017-11-08T22:45:23.704Z,5.80
2017-11-08T22:47:51.936Z,5.80
2017-11-08T22:50:19.409Z,5.80
2017-11-08T22:52:46.877Z,5.80
2017-11-08T22:55:14.344Z,5.80
2017-11-08T22:57:41.805Z,5.80
2017-11-08T23:00:10.117Z,5.70
2017-11-08T23:02:37.597Z,5.70
2017-11-08T23:05:05.058Z,5.70
2017-11-08T23:07:32.530Z,5.70
2017-11-08T23:09:59.991Z,5.60
2017-11-08T23:12:27.469Z,5.60
2017-11-08T23:14:55.710Z,5.60
2017-11-08T23:17:23.185Z,5.60
2017-11-08T23:19:50.668Z,5.60
2017-11-08T23:22:18.901Z,5.50
2017-11-08T23:24:46.386Z,5.60
2017-11-08T23:27:13.845Z,5.50
2017-11-08T23:29:42.090Z,5.50
2017-11-08T23:32:09.545Z,5.50
2017-11-08T23:34:37.032Z,5.40
2017-11-08T23:37:04.492Z,5.40
2017-11-08T23:39:32.742Z,5.20
2017-11-08T23:42:00.200Z,5.20
2017-11-08T23:44:27.664Z,5.20
2017-11-08T23:46:55.132Z,5.10
2017-11-08T23:49:22.584Z,5.00
2017-11-08T23:51:50.057Z,5.00
2017-11-08T23:54:18.322Z,4.90
2017-11-08T23:56:45.793Z,4.90
2017-11-08T23:59:19.618Z,4.70
